GB-0390 weather

Coleman Green Airstrip
England, United Kingdom

Public forecast

Using degrees Celsius for public forecast. Weather courtesy of forecast.io.

Closest aviation weather report (METAR) to Coleman Green Airstrip

Closest report is London Luton Airport, 6.1 nm (11.2 km) NW. Retrieved 2019/10/20 08:20 UTC (17 minutes ago):

EGGW 200820Z AUTO 35010KT 310V010 9999 NCD 08/06 Q1009

Closest aviation forecast (TAF) to Coleman Green Airstrip

Closest forecast is London Luton Airport, 6.1 nm (11.2 km) NW. Retrieved 2019/10/20 06:00 UTC (3 hours ago):

TAF EGGW 200457Z 2006/2106 35012KT 4000 BR BKN009 BECMG 2006/2009 9999 NSW FEW012 PROB30 TEMPO 2006/2007 BKN004 TEMPO 2009/2012 BKN012 TEMPO 2017/2106 BKN010 PROB30 TEMPO 2102/2106 7000 RA BKN009